sensor_id;sensor_type;location;lat;lon;timestamp;temperature;humidity
66337;SHT30;53139;45.576;5.304;2022-10-16T00:00:18;16.49;82.07
66337;SHT30;53139;45.576;5.304;2022-10-16T00:03:18;16.40;81.49
66337;SHT30;53139;45.576;5.304;2022-10-16T00:06:20;16.15;81.94
66337;SHT30;53139;45.576;5.304;2022-10-16T00:09:21;15.94;84.02
66337;SHT30;53139;45.576;5.304;2022-10-16T00:12:22;15.92;83.56
66337;SHT30;53139;45.576;5.304;2022-10-16T00:15:22;15.97;83.02
66337;SHT30;53139;45.576;5.304;2022-10-16T00:18:23;15.36;85.36
66337;SHT30;53139;45.576;5.304;2022-10-16T00:21:26;15.91;83.23
66337;SHT30;53139;45.576;5.304;2022-10-16T00:24:28;15.67;84.94
66337;SHT30;53139;45.576;5.304;2022-10-16T00:27:28;15.80;83.50
66337;SHT30;53139;45.576;5.304;2022-10-16T00:30:28;15.84;83.29
66337;SHT30;53139;45.576;5.304;2022-10-16T00:33:29;15.90;83.08
66337;SHT30;53139;45.576;5.304;2022-10-16T00:36:29;15.75;83.21
66337;SHT30;53139;45.576;5.304;2022-10-16T00:39:30;15.64;84.03
66337;SHT30;53139;45.576;5.304;2022-10-16T00:42:31;15.82;84.31
66337;SHT30;53139;45.576;5.304;2022-10-16T00:45:31;15.68;84.64
66337;SHT30;53139;45.576;5.304;2022-10-16T00:48:31;15.90;83.68
66337;SHT30;53139;45.576;5.304;2022-10-16T00:51:50;15.94;83.56
66337;SHT30;53139;45.576;5.304;2022-10-16T00:54:52;15.97;83.75
66337;SHT30;53139;45.576;5.304;2022-10-16T00:57:54;16.01;83.49
66337;SHT30;53139;45.576;5.304;2022-10-16T01:00:54;16.15;83.61
66337;SHT30;53139;45.576;5.304;2022-10-16T01:03:54;16.15;83.43
66337;SHT30;53139;45.576;5.304;2022-10-16T01:13:09;16.59;82.16
66337;SHT30;53139;45.576;5.304;2022-10-16T01:16:17;16.63;82.18
66337;SHT30;53139;45.576;5.304;2022-10-16T01:33:30;16.89;80.30
66337;SHT30;53139;45.576;5.304;2022-10-16T01:36:51;16.87;80.48
66337;SHT30;53139;45.576;5.304;2022-10-16T01:39:55;16.91;80.42
66337;SHT30;53139;45.576;5.304;2022-10-16T01:43:20;16.84;80.92
66337;SHT30;53139;45.576;5.304;2022-10-16T01:46:23;16.88;80.72
66337;SHT30;53139;45.576;5.304;2022-10-16T01:49:27;16.85;81.16
66337;SHT30;53139;45.576;5.304;2022-10-16T01:52:32;16.88;81.19
66337;SHT30;53139;45.576;5.304;2022-10-16T01:55:38;16.74;81.34
66337;SHT30;53139;45.576;5.304;2022-10-16T01:58:47;16.80;81.23
66337;SHT30;53139;45.576;5.304;2022-10-16T02:01:52;17.02;80.91
66337;SHT30;53139;45.576;5.304;2022-10-16T02:08:46;17.16;80.27
66337;SHT30;53139;45.576;5.304;2022-10-16T02:11:46;17.12;80.53
66337;SHT30;53139;45.576;5.304;2022-10-16T02:14:49;16.99;81.34
66337;SHT30;53139;45.576;5.304;2022-10-16T02:17:49;16.71;81.88
66337;SHT30;53139;45.576;5.304;2022-10-16T02:20:56;16.32;83.84
66337;SHT30;53139;45.576;5.304;2022-10-16T02:24:24;16.50;82.83
66337;SHT30;53139;45.576;5.304;2022-10-16T02:27:41;16.42;83.33
66337;SHT30;53139;45.576;5.304;2022-10-16T02:30:54;16.57;82.86
66337;SHT30;53139;45.576;5.304;2022-10-16T02:33:58;16.45;83.15
66337;SHT30;53139;45.576;5.304;2022-10-16T02:37:01;16.46;83.14
66337;SHT30;53139;45.576;5.304;2022-10-16T02:40:05;16.47;83.46
66337;SHT30;53139;45.576;5.304;2022-10-16T02:43:06;16.23;84.12
66337;SHT30;53139;45.576;5.304;2022-10-16T02:46:06;16.29;83.43
66337;SHT30;53139;45.576;5.304;2022-10-16T02:49:07;16.25;84.45
66337;SHT30;53139;45.576;5.304;2022-10-16T02:52:07;16.19;84.98
66337;SHT30;53139;45.576;5.304;2022-10-16T02:55:08;16.13;85.18
66337;SHT30;53139;45.576;5.304;2022-10-16T02:58:09;16.15;85.47
66337;SHT30;53139;45.576;5.304;2022-10-16T03:01:09;16.08;84.69
66337;SHT30;53139;45.576;5.304;2022-10-16T03:04:09;16.16;84.85
66337;SHT30;53139;45.576;5.304;2022-10-16T03:07:10;16.19;85.35
66337;SHT30;53139;45.576;5.304;2022-10-16T03:10:10;15.99;85.61
66337;SHT30;53139;45.576;5.304;2022-10-16T03:13:10;15.92;85.08
66337;SHT30;53139;45.576;5.304;2022-10-16T03:16:11;15.75;85.88
66337;SHT30;53139;45.576;5.304;2022-10-16T03:19:11;15.58;85.57
66337;SHT30;53139;45.576;5.304;2022-10-16T03:22:12;15.53;87.29
66337;SHT30;53139;45.576;5.304;2022-10-16T03:25:12;15.44;87.38
66337;SHT30;53139;45.576;5.304;2022-10-16T03:28:12;15.64;87.10
66337;SHT30;53139;45.576;5.304;2022-10-16T03:31:13;15.64;86.99
66337;SHT30;53139;45.576;5.304;2022-10-16T03:34:13;15.51;87.44
66337;SHT30;53139;45.576;5.304;2022-10-16T03:37:14;15.61;87.19
66337;SHT30;53139;45.576;5.304;2022-10-16T03:40:14;15.63;87.22
66337;SHT30;53139;45.576;5.304;2022-10-16T03:43:15;15.55;87.21
66337;SHT30;53139;45.576;5.304;2022-10-16T03:46:15;15.63;87.57
66337;SHT30;53139;45.576;5.304;2022-10-16T03:49:15;15.64;86.43
66337;SHT30;53139;45.576;5.304;2022-10-16T03:52:16;15.55;87.53
66337;SHT30;53139;45.576;5.304;2022-10-16T03:55:17;15.33;87.10
66337;SHT30;53139;45.576;5.304;2022-10-16T03:58:17;15.36;86.65
66337;SHT30;53139;45.576;5.304;2022-10-16T04:01:17;15.35;86.84
66337;SHT30;53139;45.576;5.304;2022-10-16T04:04:18;15.20;87.57
66337;SHT30;53139;45.576;5.304;2022-10-16T04:07:18;15.26;88.76
66337;SHT30;53139;45.576;5.304;2022-10-16T04:10:18;15.47;87.06
66337;SHT30;53139;45.576;5.304;2022-10-16T04:13:19;15.32;86.83
66337;SHT30;53139;45.576;5.304;2022-10-16T04:16:19;15.23;87.77
66337;SHT30;53139;45.576;5.304;2022-10-16T04:19:20;15.43;86.64
66337;SHT30;53139;45.576;5.304;2022-10-16T04:22:20;15.35;86.90
66337;SHT30;53139;45.576;5.304;2022-10-16T04:25:21;15.16;88.68
66337;SHT30;53139;45.576;5.304;2022-10-16T04:28:21;15.02;87.65
66337;SHT30;53139;45.576;5.304;2022-10-16T04:31:21;14.96;88.31
66337;SHT30;53139;45.576;5.304;2022-10-16T04:34:22;14.71;90.68
66337;SHT30;53139;45.576;5.304;2022-10-16T04:37:26;14.36;90.04
66337;SHT30;53139;45.576;5.304;2022-10-16T04:40:26;14.59;87.77
66337;SHT30;53139;45.576;5.304;2022-10-16T04:43:27;14.22;90.27
66337;SHT30;53139;45.576;5.304;2022-10-16T04:46:27;14.33;90.17
66337;SHT30;53139;45.576;5.304;2022-10-16T04:49:27;14.09;88.93
66337;SHT30;53139;45.576;5.304;2022-10-16T04:52:28;14.01;90.15
66337;SHT30;53139;45.576;5.304;2022-10-16T04:55:28;13.77;90.51
66337;SHT30;53139;45.576;5.304;2022-10-16T04:58:29;13.78;90.94
66337;SHT30;53139;45.576;5.304;2022-10-16T05:01:29;13.77;88.74
66337;SHT30;53139;45.576;5.304;2022-10-16T05:04:30;13.72;89.83
66337;SHT30;53139;45.576;5.304;2022-10-16T05:07:30;13.71;91.13
66337;SHT30;53139;45.576;5.304;2022-10-16T05:10:30;13.79;90.54
66337;SHT30;53139;45.576;5.304;2022-10-16T05:13:31;13.72;92.58
66337;SHT30;53139;45.576;5.304;2022-10-16T05:16:31;13.68;89.64
66337;SHT30;53139;45.576;5.304;2022-10-16T05:19:32;13.30;91.56
66337;SHT30;53139;45.576;5.304;2022-10-16T05:22:32;13.61;90.18
66337;SHT30;53139;45.576;5.304;2022-10-16T05:25:32;13.46;90.81
66337;SHT30;53139;45.576;5.304;2022-10-16T05:28:33;13.65;93.69
66337;SHT30;53139;45.576;5.304;2022-10-16T05:31:34;13.92;93.01
66337;SHT30;53139;45.576;5.304;2022-10-16T05:34:34;13.98;92.85
66337;SHT30;53139;45.576;5.304;2022-10-16T05:37:34;13.82;92.27
66337;SHT30;53139;45.576;5.304;2022-10-16T05:40:35;13.94;91.17
66337;SHT30;53139;45.576;5.304;2022-10-16T05:43:35;14.01;91.51
66337;SHT30;53139;45.576;5.304;2022-10-16T05:46:35;14.04;90.16
66337;SHT30;53139;45.576;5.304;2022-10-16T05:49:36;14.02;91.05
66337;SHT30;53139;45.576;5.304;2022-10-16T05:52:36;14.37;90.46
66337;SHT30;53139;45.576;5.304;2022-10-16T05:55:36;14.22;90.27
66337;SHT30;53139;45.576;5.304;2022-10-16T05:58:38;14.34;89.96
66337;SHT30;53139;45.576;5.304;2022-10-16T06:01:40;14.30;89.55
66337;SHT30;53139;45.576;5.304;2022-10-16T06:04:41;14.27;90.02
66337;SHT30;53139;45.576;5.304;2022-10-16T06:07:41;14.16;89.24
66337;SHT30;53139;45.576;5.304;2022-10-16T06:10:42;13.92;90.92
66337;SHT30;53139;45.576;5.304;2022-10-16T06:13:43;13.94;91.46
66337;SHT30;53139;45.576;5.304;2022-10-16T06:16:45;14.02;90.02
66337;SHT30;53139;45.576;5.304;2022-10-16T06:19:46;14.05;90.33
66337;SHT30;53139;45.576;5.304;2022-10-16T06:22:46;14.25;89.64
66337;SHT30;53139;45.576;5.304;2022-10-16T06:25:46;14.70;89.35
66337;SHT30;53139;45.576;5.304;2022-10-16T06:28:47;14.85;88.73
66337;SHT30;53139;45.576;5.304;2022-10-16T06:31:48;14.82;88.65
66337;SHT30;53139;45.576;5.304;2022-10-16T06:34:48;14.91;88.08
66337;SHT30;53139;45.576;5.304;2022-10-16T06:37:49;14.93;87.95
66337;SHT30;53139;45.576;5.304;2022-10-16T06:40:49;14.82;88.67
66337;SHT30;53139;45.576;5.304;2022-10-16T06:43:50;14.77;88.58
66337;SHT30;53139;45.576;5.304;2022-10-16T06:46:50;14.65;88.69
66337;SHT30;53139;45.576;5.304;2022-10-16T06:49:51;14.84;88.50
66337;SHT30;53139;45.576;5.304;2022-10-16T06:52:51;14.89;88.54
66337;SHT30;53139;45.576;5.304;2022-10-16T06:55:52;14.96;87.04
66337;SHT30;53139;45.576;5.304;2022-10-16T06:58:53;14.98;86.83
66337;SHT30;53139;45.576;5.304;2022-10-16T07:01:53;15.08;87.41
66337;SHT30;53139;45.576;5.304;2022-10-16T07:04:53;15.26;86.80
66337;SHT30;53139;45.576;5.304;2022-10-16T07:07:54;15.39;85.99
66337;SHT30;53139;45.576;5.304;2022-10-16T07:11:02;15.67;85.71
66337;SHT30;53139;45.576;5.304;2022-10-16T07:14:03;15.71;85.82
66337;SHT30;53139;45.576;5.304;2022-10-16T07:17:03;15.84;85.37
66337;SHT30;53139;45.576;5.304;2022-10-16T07:20:04;15.94;85.01
66337;SHT30;53139;45.576;5.304;2022-10-16T07:23:04;16.16;84.92
66337;SHT30;53139;45.576;5.304;2022-10-16T07:26:06;16.40;84.07
66337;SHT30;53139;45.576;5.304;2022-10-16T07:29:15;16.80;83.59
66337;SHT30;53139;45.576;5.304;2022-10-16T07:32:15;17.16;82.21
66337;SHT30;53139;45.576;5.304;2022-10-16T07:35:16;17.51;81.77
66337;SHT30;53139;45.576;5.304;2022-10-16T07:38:16;17.98;81.40
66337;SHT30;53139;45.576;5.304;2022-10-16T07:41:19;18.25;77.91
66337;SHT30;53139;45.576;5.304;2022-10-16T07:44:19;18.68;78.55
66337;SHT30;53139;45.576;5.304;2022-10-16T07:47:19;18.88;76.37
66337;SHT30;53139;45.576;5.304;2022-10-16T07:50:20;18.92;74.28
66337;SHT30;53139;45.576;5.304;2022-10-16T07:53:21;19.26;76.51
66337;SHT30;53139;45.576;5.304;2022-10-16T07:56:21;19.43;75.25
66337;SHT30;53139;45.576;5.304;2022-10-16T07:59:22;19.84;73.89
66337;SHT30;53139;45.576;5.304;2022-10-16T08:02:22;19.92;73.56
66337;SHT30;53139;45.576;5.304;2022-10-16T08:05:23;19.87;72.04
66337;SHT30;53139;45.576;5.304;2022-10-16T08:08:23;19.97;68.67
66337;SHT30;53139;45.576;5.304;2022-10-16T08:11:23;20.53;68.31
66337;SHT30;53139;45.576;5.304;2022-10-16T08:14:24;20.72;68.69
66337;SHT30;53139;45.576;5.304;2022-10-16T08:17:24;20.64;67.89
66337;SHT30;53139;45.576;5.304;2022-10-16T08:20:25;20.19;69.11
66337;SHT30;53139;45.576;5.304;2022-10-16T08:23:27;20.73;68.09
66337;SHT30;53139;45.576;5.304;2022-10-16T08:26:28;20.85;68.91
66337;SHT30;53139;45.576;5.304;2022-10-16T08:29:28;21.52;67.14
66337;SHT30;53139;45.576;5.304;2022-10-16T08:32:29;21.73;66.92
66337;SHT30;53139;45.576;5.304;2022-10-16T08:35:29;21.69;67.03
66337;SHT30;53139;45.576;5.304;2022-10-16T08:38:29;21.77;65.31
66337;SHT30;53139;45.576;5.304;2022-10-16T08:51:44;22.45;62.24
66337;SHT30;53139;45.576;5.304;2022-10-16T08:54:51;22.34;62.12
66337;SHT30;53139;45.576;5.304;2022-10-16T08:57:53;22.90;60.93
66337;SHT30;53139;45.576;5.304;2022-10-16T09:01:01;22.69;60.94
66337;SHT30;53139;45.576;5.304;2022-10-16T09:04:37;22.80;58.86
66337;SHT30;53139;45.576;5.304;2022-10-16T09:10:59;23.77;58.05
66337;SHT30;53139;45.576;5.304;2022-10-16T09:17:12;23.58;58.75
66337;SHT30;53139;45.576;5.304;2022-10-16T09:23:29;24.93;56.45
66337;SHT30;53139;45.576;5.304;2022-10-16T09:26:30;24.68;57.35
66337;SHT30;53139;45.576;5.304;2022-10-16T09:29:30;24.77;55.85
66337;SHT30;53139;45.576;5.304;2022-10-16T09:32:31;25.21;54.68
66337;SHT30;53139;45.576;5.304;2022-10-16T09:35:44;25.02;55.57
66337;SHT30;53139;45.576;5.304;2022-10-16T09:38:45;25.13;55.10
66337;SHT30;53139;45.576;5.304;2022-10-16T09:41:45;25.33;55.72
66337;SHT30;53139;45.576;5.304;2022-10-16T09:44:50;25.55;54.85
66337;SHT30;53139;45.576;5.304;2022-10-16T09:47:51;25.37;54.53
66337;SHT30;53139;45.576;5.304;2022-10-16T09:51:04;26.03;54.28
66337;SHT30;53139;45.576;5.304;2022-10-16T09:57:12;26.82;51.16
66337;SHT30;53139;45.576;5.304;2022-10-16T10:00:16;26.96;50.49
66337;SHT30;53139;45.576;5.304;2022-10-16T10:03:35;25.85;51.64
66337;SHT30;53139;45.576;5.304;2022-10-16T10:06:42;26.54;50.31
66337;SHT30;53139;45.576;5.304;2022-10-16T10:09:44;26.64;51.84
66337;SHT30;53139;45.576;5.304;2022-10-16T10:12:45;25.85;52.40
66337;SHT30;53139;45.576;5.304;2022-10-16T10:15:46;26.23;50.99
66337;SHT30;53139;45.576;5.304;2022-10-16T10:18:46;26.37;50.47
66337;SHT30;53139;45.576;5.304;2022-10-16T10:21:48;26.37;48.64
66337;SHT30;53139;45.576;5.304;2022-10-16T10:35:35;25.30;52.21
66337;SHT30;53139;45.576;5.304;2022-10-16T10:42:27;24.87;51.83
66337;SHT30;53139;45.576;5.304;2022-10-16T10:45:42;25.99;50.14
66337;SHT30;53139;45.576;5.304;2022-10-16T10:52:06;25.38;50.51
66337;SHT30;53139;45.576;5.304;2022-10-16T11:01:54;26.91;49.12
66337;SHT30;53139;45.576;5.304;2022-10-16T11:08:17;26.06;50.15
66337;SHT30;53139;45.576;5.304;2022-10-16T11:11:25;25.94;50.37
66337;SHT30;53139;45.576;5.304;2022-10-16T11:14:40;24.89;51.28
66337;SHT30;53139;45.576;5.304;2022-10-16T11:20:57;25.34;51.20
66337;SHT30;53139;45.576;5.304;2022-10-16T11:24:13;25.13;51.93
66337;SHT30;53139;45.576;5.304;2022-10-16T11:27:33;25.78;50.23
66337;SHT30;53139;45.576;5.304;2022-10-16T11:33:47;26.04;50.18
66337;SHT30;53139;45.576;5.304;2022-10-16T11:36:53;26.54;49.66
66337;SHT30;53139;45.576;5.304;2022-10-16T11:40:05;26.54;47.74
66337;SHT30;53139;45.576;5.304;2022-10-16T11:43:26;26.45;48.20
66337;SHT30;53139;45.576;5.304;2022-10-16T11:46:30;26.61;47.35
66337;SHT30;53139;45.576;5.304;2022-10-16T11:49:33;26.55;48.32
66337;SHT30;53139;45.576;5.304;2022-10-16T11:52:42;26.38;49.16
66337;SHT30;53139;45.576;5.304;2022-10-16T11:55:44;26.81;49.80
66337;SHT30;53139;45.576;5.304;2022-10-16T12:02:53;26.54;49.55
66337;SHT30;53139;45.576;5.304;2022-10-16T12:09:26;27.47;47.83
66337;SHT30;53139;45.576;5.304;2022-10-16T12:12:37;26.34;50.49
66337;SHT30;53139;45.576;5.304;2022-10-16T12:15:38;26.44;50.00
66337;SHT30;53139;45.576;5.304;2022-10-16T12:18:40;26.33;48.70
66337;SHT30;53139;45.576;5.304;2022-10-16T12:21:42;26.85;48.76
66337;SHT30;53139;45.576;5.304;2022-10-16T12:24:43;26.49;50.28
66337;SHT30;53139;45.576;5.304;2022-10-16T12:27:43;27.50;47.40
66337;SHT30;53139;45.576;5.304;2022-10-16T12:30:56;27.37;46.27
66337;SHT30;53139;45.576;5.304;2022-10-16T12:33:59;27.62;46.12
66337;SHT30;53139;45.576;5.304;2022-10-16T12:37:18;28.64;46.09
66337;SHT30;53139;45.576;5.304;2022-10-16T12:40:30;27.23;47.12
66337;SHT30;53139;45.576;5.304;2022-10-16T12:43:46;27.50;47.59
66337;SHT30;53139;45.576;5.304;2022-10-16T12:46:46;26.65;50.04
66337;SHT30;53139;45.576;5.304;2022-10-16T12:49:54;27.78;47.39
66337;SHT30;53139;45.576;5.304;2022-10-16T12:52:54;26.82;48.42
66337;SHT30;53139;45.576;5.304;2022-10-16T12:56:18;26.82;48.89
66337;SHT30;53139;45.576;5.304;2022-10-16T13:13:39;27.33;49.38
66337;SHT30;53139;45.576;5.304;2022-10-16T13:16:50;27.53;48.62
66337;SHT30;53139;45.576;5.304;2022-10-16T13:23:15;27.24;49.63
66337;SHT30;53139;45.576;5.304;2022-10-16T13:29:52;26.30;51.92
66337;SHT30;53139;45.576;5.304;2022-10-16T13:33:01;28.19;48.41
66337;SHT30;53139;45.576;5.304;2022-10-16T13:36:02;25.76;52.65
66337;SHT30;53139;45.576;5.304;2022-10-16T13:42:26;26.34;49.70
66337;SHT30;53139;45.576;5.304;2022-10-16T13:45:27;26.43;50.85
66337;SHT30;53139;45.576;5.304;2022-10-16T13:48:29;25.41;52.37
66337;SHT30;53139;45.576;5.304;2022-10-16T13:51:31;27.06;51.00
66337;SHT30;53139;45.576;5.304;2022-10-16T13:54:32;26.06;49.81
66337;SHT30;53139;45.576;5.304;2022-10-16T13:57:32;26.10;51.83
66337;SHT30;53139;45.576;5.304;2022-10-16T14:00:32;26.79;50.34
66337;SHT30;53139;45.576;5.304;2022-10-16T14:03:34;25.99;51.02
66337;SHT30;53139;45.576;5.304;2022-10-16T14:06:36;27.41;48.51
66337;SHT30;53139;45.576;5.304;2022-10-16T14:09:40;27.17;48.17
66337;SHT30;53139;45.576;5.304;2022-10-16T14:12:40;27.51;48.89
66337;SHT30;53139;45.576;5.304;2022-10-16T14:15:47;26.81;50.92
66337;SHT30;53139;45.576;5.304;2022-10-16T14:21:58;28.08;48.84
66337;SHT30;53139;45.576;5.304;2022-10-16T14:25:00;27.44;49.09
66337;SHT30;53139;45.576;5.304;2022-10-16T14:31:32;27.69;49.17
66337;SHT30;53139;45.576;5.304;2022-10-16T14:34:35;26.72;53.02
66337;SHT30;53139;45.576;5.304;2022-10-16T14:37:35;26.33;52.36
66337;SHT30;53139;45.576;5.304;2022-10-16T14:40:37;27.48;49.10
66337;SHT30;53139;45.576;5.304;2022-10-16T14:43:40;27.41;50.02
66337;SHT30;53139;45.576;5.304;2022-10-16T14:46:42;26.54;51.55
66337;SHT30;53139;45.576;5.304;2022-10-16T14:49:43;27.40;51.07
66337;SHT30;53139;45.576;5.304;2022-10-16T14:52:44;25.62;53.63
66337;SHT30;53139;45.576;5.304;2022-10-16T14:55:44;25.68;54.88
66337;SHT30;53139;45.576;5.304;2022-10-16T14:58:45;25.27;55.61
66337;SHT30;53139;45.576;5.304;2022-10-16T15:01:46;26.00;53.00
66337;SHT30;53139;45.576;5.304;2022-10-16T15:04:47;27.27;52.42
66337;SHT30;53139;45.576;5.304;2022-10-16T15:07:48;26.28;53.90
66337;SHT30;53139;45.576;5.304;2022-10-16T15:10:49;26.12;51.92
66337;SHT30;53139;45.576;5.304;2022-10-16T15:13:49;27.19;52.14
66337;SHT30;53139;45.576;5.304;2022-10-16T15:16:50;27.06;50.93
66337;SHT30;53139;45.576;5.304;2022-10-16T15:19:50;25.97;53.18
66337;SHT30;53139;45.576;5.304;2022-10-16T15:22:52;26.92;52.07
66337;SHT30;53139;45.576;5.304;2022-10-16T15:25:54;25.90;52.46
66337;SHT30;53139;45.576;5.304;2022-10-16T15:28:55;27.24;49.99
66337;SHT30;53139;45.576;5.304;2022-10-16T15:31:55;26.99;51.47
66337;SHT30;53139;45.576;5.304;2022-10-16T15:34:56;26.51;51.27
66337;SHT30;53139;45.576;5.304;2022-10-16T15:37:57;26.69;52.66
66337;SHT30;53139;45.576;5.304;2022-10-16T15:40:57;25.42;52.36
66337;SHT30;53139;45.576;5.304;2022-10-16T15:44:00;25.78;50.87
66337;SHT30;53139;45.576;5.304;2022-10-16T15:47:01;24.34;54.65
66337;SHT30;53139;45.576;5.304;2022-10-16T15:50:01;25.04;52.59
66337;SHT30;53139;45.576;5.304;2022-10-16T15:53:02;25.09;51.50
66337;SHT30;53139;45.576;5.304;2022-10-16T15:56:03;24.49;52.09
66337;SHT30;53139;45.576;5.304;2022-10-16T15:59:04;23.65;54.52
66337;SHT30;53139;45.576;5.304;2022-10-16T16:02:05;24.13;54.28
66337;SHT30;53139;45.576;5.304;2022-10-16T16:05:06;23.29;55.81
66337;SHT30;53139;45.576;5.304;2022-10-16T16:08:08;23.14;56.72
66337;SHT30;53139;45.576;5.304;2022-10-16T16:11:11;23.01;56.82
66337;SHT30;53139;45.576;5.304;2022-10-16T16:14:13;22.97;57.52
66337;SHT30;53139;45.576;5.304;2022-10-16T16:17:13;22.74;57.78
66337;SHT30;53139;45.576;5.304;2022-10-16T16:20:14;22.57;58.81
66337;SHT30;53139;45.576;5.304;2022-10-16T16:23:15;22.41;59.28
66337;SHT30;53139;45.576;5.304;2022-10-16T16:26:26;22.51;59.05
66337;SHT30;53139;45.576;5.304;2022-10-16T16:29:27;22.59;58.99
66337;SHT30;53139;45.576;5.304;2022-10-16T16:32:27;22.28;60.26
66337;SHT30;53139;45.576;5.304;2022-10-16T16:35:27;22.15;60.76
66337;SHT30;53139;45.576;5.304;2022-10-16T16:38:28;22.12;61.01
66337;SHT30;53139;45.576;5.304;2022-10-16T16:41:29;22.14;61.19
66337;SHT30;53139;45.576;5.304;2022-10-16T16:44:30;22.00;61.86
66337;SHT30;53139;45.576;5.304;2022-10-16T16:47:30;21.94;62.12
66337;SHT30;53139;45.576;5.304;2022-10-16T16:50:35;21.70;62.99
66337;SHT30;53139;45.576;5.304;2022-10-16T16:53:36;21.74;62.98
66337;SHT30;53139;45.576;5.304;2022-10-16T16:56:36;21.86;62.80
66337;SHT30;53139;45.576;5.304;2022-10-16T16:59:37;21.70;63.57
66337;SHT30;53139;45.576;5.304;2022-10-16T17:02:37;21.60;64.09
66337;SHT30;53139;45.576;5.304;2022-10-16T17:05:43;21.53;64.52
66337;SHT30;53139;45.576;5.304;2022-10-16T17:08:43;21.53;64.33
66337;SHT30;53139;45.576;5.304;2022-10-16T17:11:43;21.36;64.76
66337;SHT30;53139;45.576;5.304;2022-10-16T17:14:44;21.14;66.20
66337;SHT30;53139;45.576;5.304;2022-10-16T17:17:45;20.81;67.03
66337;SHT30;53139;45.576;5.304;2022-10-16T17:20:45;20.74;67.59
66337;SHT30;53139;45.576;5.304;2022-10-16T17:23:46;20.55;67.84
66337;SHT30;53139;45.576;5.304;2022-10-16T17:26:46;20.45;68.23
66337;SHT30;53139;45.576;5.304;2022-10-16T17:29:51;20.21;69.25
66337;SHT30;53139;45.576;5.304;2022-10-16T17:32:51;19.87;70.69
66337;SHT30;53139;45.576;5.304;2022-10-16T17:35:52;20.30;69.22
66337;SHT30;53139;45.576;5.304;2022-10-16T17:38:52;20.14;70.38
66337;SHT30;53139;45.576;5.304;2022-10-16T17:41:52;19.83;70.80
66337;SHT30;53139;45.576;5.304;2022-10-16T17:44:53;19.80;70.74
66337;SHT30;53139;45.576;5.304;2022-10-16T17:47:54;19.60;71.58
66337;SHT30;53139;45.576;5.304;2022-10-16T17:50:54;19.35;72.76
66337;SHT30;53139;45.576;5.304;2022-10-16T17:53:57;18.80;75.74
66337;SHT30;53139;45.576;5.304;2022-10-16T17:56:57;19.35;73.18
66337;SHT30;53139;45.576;5.304;2022-10-16T17:59:58;19.35;73.21
66337;SHT30;53139;45.576;5.304;2022-10-16T18:02:58;19.32;74.08
66337;SHT30;53139;45.576;5.304;2022-10-16T18:06:00;19.43;73.49
66337;SHT30;53139;45.576;5.304;2022-10-16T18:09:01;19.47;73.48
66337;SHT30;53139;45.576;5.304;2022-10-16T18:12:02;19.18;75.16
66337;SHT30;53139;45.576;5.304;2022-10-16T18:15:05;19.25;74.86
66337;SHT30;53139;45.576;5.304;2022-10-16T18:18:05;19.47;74.84
66337;SHT30;53139;45.576;5.304;2022-10-16T18:21:08;19.55;75.36
66337;SHT30;53139;45.576;5.304;2022-10-16T18:24:10;19.74;74.43
66337;SHT30;53139;45.576;5.304;2022-10-16T18:27:10;19.84;75.28
66337;SHT30;53139;45.576;5.304;2022-10-16T18:30:10;19.70;75.19
66337;SHT30;53139;45.576;5.304;2022-10-16T18:33:11;19.95;75.85
66337;SHT30;53139;45.576;5.304;2022-10-16T18:36:11;19.62;76.31
66337;SHT30;53139;45.576;5.304;2022-10-16T18:39:12;19.87;76.78
66337;SHT30;53139;45.576;5.304;2022-10-16T18:42:13;20.00;76.18
66337;SHT30;53139;45.576;5.304;2022-10-16T18:45:13;19.94;75.65
66337;SHT30;53139;45.576;5.304;2022-10-16T18:48:14;19.80;76.13
66337;SHT30;53139;45.576;5.304;2022-10-16T18:51:18;19.95;75.93
66337;SHT30;53139;45.576;5.304;2022-10-16T18:54:19;19.90;76.66
66337;SHT30;53139;45.576;5.304;2022-10-16T18:57:19;19.62;76.83
66337;SHT30;53139;45.576;5.304;2022-10-16T19:00:20;19.85;76.79
66337;SHT30;53139;45.576;5.304;2022-10-16T19:03:20;19.78;77.65
66337;SHT30;53139;45.576;5.304;2022-10-16T19:06:21;19.70;76.76
66337;SHT30;53139;45.576;5.304;2022-10-16T19:09:22;19.80;77.28
66337;SHT30;53139;45.576;5.304;2022-10-16T19:12:23;19.75;77.33
66337;SHT30;53139;45.576;5.304;2022-10-16T19:15:23;19.60;78.17
66337;SHT30;53139;45.576;5.304;2022-10-16T19:18:23;19.92;76.93
66337;SHT30;53139;45.576;5.304;2022-10-16T19:21:25;19.87;77.25
66337;SHT30;53139;45.576;5.304;2022-10-16T19:24:26;19.88;77.48
66337;SHT30;53139;45.576;5.304;2022-10-16T19:27:26;19.50;78.93
66337;SHT30;53139;45.576;5.304;2022-10-16T19:30:26;19.38;79.25
66337;SHT30;53139;45.576;5.304;2022-10-16T19:33:27;19.64;78.66
66337;SHT30;53139;45.576;5.304;2022-10-16T19:36:30;19.70;78.10
66337;SHT30;53139;45.576;5.304;2022-10-16T19:39:31;19.63;78.07
66337;SHT30;53139;45.576;5.304;2022-10-16T19:42:31;19.64;77.95
66337;SHT30;53139;45.576;5.304;2022-10-16T19:45:32;19.49;78.22
66337;SHT30;53139;45.576;5.304;2022-10-16T19:48:33;19.60;78.39
66337;SHT30;53139;45.576;5.304;2022-10-16T19:51:34;19.49;79.31
66337;SHT30;53139;45.576;5.304;2022-10-16T19:54:35;19.64;78.09
66337;SHT30;53139;45.576;5.304;2022-10-16T19:57:36;19.59;79.05
66337;SHT30;53139;45.576;5.304;2022-10-16T20:00:40;19.57;79.58
66337;SHT30;53139;45.576;5.304;2022-10-16T20:03:45;19.46;80.02
66337;SHT30;53139;45.576;5.304;2022-10-16T20:06:46;19.66;78.59
66337;SHT30;53139;45.576;5.304;2022-10-16T20:09:46;19.35;80.07
66337;SHT30;53139;45.576;5.304;2022-10-16T20:12:46;19.40;80.49
66337;SHT30;53139;45.576;5.304;2022-10-16T20:15:48;19.30;80.11
66337;SHT30;53139;45.576;5.304;2022-10-16T20:18:49;19.25;80.73
66337;SHT30;53139;45.576;5.304;2022-10-16T20:21:50;19.56;79.79
66337;SHT30;53139;45.576;5.304;2022-10-16T20:24:50;19.60;79.70
66337;SHT30;53139;45.576;5.304;2022-10-16T20:27:51;19.62;80.09
66337;SHT30;53139;45.576;5.304;2022-10-16T20:30:51;19.50;80.33
66337;SHT30;53139;45.576;5.304;2022-10-16T20:33:53;19.60;79.58
66337;SHT30;53139;45.576;5.304;2022-10-16T20:36:54;19.39;80.40
66337;SHT30;53139;45.576;5.304;2022-10-16T20:39:54;19.18;80.74
66337;SHT30;53139;45.576;5.304;2022-10-16T20:42:54;19.01;80.97
66337;SHT30;53139;45.576;5.304;2022-10-16T20:46:00;19.26;81.81
66337;SHT30;53139;45.576;5.304;2022-10-16T20:49:01;19.22;81.87
66337;SHT30;53139;45.576;5.304;2022-10-16T20:52:03;19.36;81.12
66337;SHT30;53139;45.576;5.304;2022-10-16T20:55:04;19.11;82.33
66337;SHT30;53139;45.576;5.304;2022-10-16T20:58:04;19.30;81.50
66337;SHT30;53139;45.576;5.304;2022-10-16T21:01:11;18.90;83.15
66337;SHT30;53139;45.576;5.304;2022-10-16T21:04:12;19.22;81.61
66337;SHT30;53139;45.576;5.304;2022-10-16T21:07:12;19.22;82.13
66337;SHT30;53139;45.576;5.304;2022-10-16T21:10:12;19.05;82.65